Chesapeake Beach, Maryland
Current Conditions -  °F | °C
As of 10:54 AM on Monday 24 Nov 2014 (Local Time) from KNAK Reporting Station
Overcast Overcast  
Wind Chill: 67°   Ceiling: 3500
Heat Index: 67°   Visibility: 10mi
Dew Point: 56°   Wind: 15mph
Humidity: 68%   Direction: 190°S
Pressure: 29.69"   Gusts: 21mph
Location:  38.69°N, 76.53°W
Report Text: KNAK 241554Z AUTO 19013G18KT 10SM OVC035 19/13 A2969 RMK AO2 SLP056 T01940133
Loading
Personal Weather Stations






























Interactive Weather Map New forecast layout! Learn more

10-Day Weather Forecast

Advertisements
Track Severe Weather on mobile